Time;durP1;ratioP1;P1;durP2;ratioP2;P2;SDS_P1;SDS_P2;PMS_P1;PMS_P2;Temp;Humidity;BMP_temperature;BMP_pressure;BME280_temperature;BME280_humidity;BME280_pressure;Samples;Min_cycle;Max_cycle;Signal;HPM_P1;HPM_P2
2021/05/23 16:55:11;;;;;;;6.83;2.60;;;;;;;24.90;34.40;100579.63;1818263;77;22739;-66
2021/05/23 16:57:38;;;;;;;8.08;2.47;;;;;;;24.50;32.26;100579.48;1821014;78;21017;-64
2021/05/23 17:00:08;;;;;;;74.67;54.67;;;;;;;23.99;32.25;100586.80;1820357;78;21083;-64
2021/05/23 17:02:34;;;;;;;25.00;13.78;;;;;;;23.52;32.98;100583.75;1765075;78;21606;-66
2021/05/23 17:05:01;;;;;;;7.83;4.20;;;;;;;23.09;33.37;100586.86;1821493;78;20966;-64
2021/05/23 17:07:29;;;;;;;24.92;4.35;;;;;;;22.77;34.02;100590.05;1821551;78;21551;-64
2021/05/23 17:09:55;;;;;;;21.23;2.92;;;;;;;22.47;34.30;100591.84;1821420;78;21088;-65
2021/05/23 17:12:22;;;;;;;57.43;4.50;;;;;;;22.21;34.44;100595.26;1821388;78;21072;-66
2021/05/23 17:14:49;;;;;;;24.02;3.42;;;;;;;21.98;34.66;100603.88;1808836;78;21044;-64
2021/05/23 17:17:16;;;;;;;10.58;3.50;;;;;;;21.80;35.44;100603.30;1800810;79;20957;-65
2021/05/23 17:19:43;;;;;;;15.65;3.90;;;;;;;21.63;35.93;100606.55;1800334;79;21468;-67
2021/05/23 17:22:12;;;;;;;19.23;3.20;;;;;;;21.47;36.75;100607.66;1800288;79;21636;-64
2021/05/23 17:24:39;;;;;;;14.95;4.40;;;;;;;21.34;37.41;100609.87;1800401;79;21081;-67
2021/05/23 17:27:06;;;;;;;13.18;3.45;;;;;;;21.23;38.07;100610.19;1800687;79;21097;-67
2021/05/23 17:29:33;;;;;;;16.70;3.87;;;;;;;21.12;37.60;100615.12;1800717;79;20985;-66
2021/05/23 17:32:02;;;;;;;10.65;2.83;;;;;;;21.02;38.04;100613.56;1800392;79;21088;-69
2021/05/23 17:34:28;;;;;;;15.78;3.45;;;;;;;20.93;38.38;100617.18;1801029;79;21013;-68
2021/05/23 17:36:55;;;;;;;14.83;3.25;;;;;;;20.87;38.88;100613.28;1800437;79;21148;-64
2021/05/23 17:39:23;;;;;;;14.13;4.28;;;;;;;20.80;39.06;100614.78;1800563;79;21517;-63
2021/05/23 17:41:50;;;;;;;23.52;3.87;;;;;;;20.65;39.60;100626.10;1800164;79;20961;-68
2021/05/23 17:44:17;;;;;;;13.75;3.30;;;;;;;20.65;39.60;100626.10;1796886;79;20970;-68
2021/05/23 17:46:44;;;;;;;14.10;4.80;;;;;;;20.60;39.60;100619.77;1788956;80;21543;-68
2021/05/23 17:49:10;;;;;;;10.85;3.02;;;;;;;20.55;38.98;100625.88;1789039;79;21787;-68
2021/05/23 17:51:37;;;;;;;7.80;2.95;;;;;;;20.49;39.06;100628.19;1789431;80;21512;-69
2021/05/23 17:54:04;;;;;;;8.85;3.30;;;;;;;20.45;39.09;100633.77;1785682;80;21595;-68
2021/05/23 17:56:32;;;;;;;8.73;2.92;;;;;;;20.40;39.67;100637.70;1781467;80;21055;-68
2021/05/23 17:59:00;;;;;;;19.12;2.95;;;;;;;20.37;40.15;100636.01;1779670;79;21087;-68
2021/05/23 18:01:27;;;;;;;10.08;2.80;;;;;;;20.31;40.36;100645.89;1781492;80;21838;-67
2021/05/23 18:03:54;;;;;;;10.23;3.40;;;;;;;20.26;40.50;100655.19;1780695;79;21107;-68
2021/05/23 18:06:22;;;;;;;9.00;4.08;;;;;;;20.22;40.46;100663.45;1781026;80;21027;-68
2021/05/23 18:08:50;;;;;;;13.00;4.12;;;;;;;20.22;41.19;100665.33;1780533;80;20998;-68
2021/05/23 18:11:16;;;;;;;11.50;4.03;;;;;;;20.18;40.66;100667.69;1781144;80;20973;-68
2021/05/23 18:13:43;;;;;;;11.70;4.45;;;;;;;20.16;40.98;100668.46;1781087;79;21072;-69
2021/05/23 18:16:10;;;;;;;26.05;5.00;;;;;;;20.12;41.45;100675.38;1766468;80;21088;-68
2021/05/23 18:18:37;;;;;;;13.03;3.83;;;;;;;20.06;41.75;100674.42;1786104;79;21416;-67
2021/05/23 18:21:04;;;;;;;16.45;5.75;;;;;;;20.04;41.70;100679.77;1786190;79;21583;-67
2021/05/23 18:23:32;;;;;;;18.35;4.70;;;;;;;20.01;42.10;100682.95;1786252;79;20994;-68
2021/05/23 18:25:59;;;;;;;16.27;4.92;;;;;;;19.97;42.16;100675.02;1785230;80;21132;-68
2021/05/23 18:28:26;;;;;;;14.53;6.87;;;;;;;19.94;42.25;100683.03;1786259;79;21022;-68
2021/05/23 18:30:53;;;;;;;15.90;8.03;;;;;;;19.93;42.47;100670.62;1785784;80;20958;-68
2021/05/23 18:33:21;;;;;;;13.22;7.10;;;;;;;19.92;42.36;100677.59;1786256;79;21022;-68
2021/05/23 18:35:48;;;;;;;21.07;6.62;;;;;;;19.90;41.60;100674.31;1785931;79;20982;-67
2021/05/23 18:38:18;;;;;;;13.90;6.37;;;;;;;19.89;41.72;100672.66;1786356;79;22098;-67
2021/05/23 18:40:47;;;;;;;18.23;6.22;;;;;;;19.87;42.03;100680.15;1785976;80;21523;-67
2021/05/23 18:43:15;;;;;;;20.77;6.15;;;;;;;19.83;41.98;100679.80;1785916;79;21579;-67
2021/05/23 18:45:44;;;;;;;14.05;5.87;;;;;;;19.80;42.33;100673.52;1780664;80;20967;-68
2021/05/23 18:48:12;;;;;;;14.10;5.30;;;;;;;19.78;42.79;100674.81;1780926;80;21106;-67
2021/05/23 18:50:39;;;;;;;15.43;5.72;;;;;;;19.74;42.12;100679.86;1780872;80;21116;-68
2021/05/23 18:53:06;;;;;;;14.93;5.65;;;;;;;19.69;41.50;100673.80;1780702;80;21078;-70
2021/05/23 18:55:32;;;;;;;13.65;6.50;;;;;;;19.63;41.25;100677.95;1788783;80;21043;-73
2021/05/23 18:57:59;;;;;;;32.10;10.05;;;;;;;19.60;41.61;100674.37;1789247;78;21209;-76
2021/05/23 19:00:26;;;;;;;20.77;8.45;;;;;;;19.55;42.16;100677.77;1788457;80;20967;-77
2021/05/23 19:02:53;;;;;;;16.95;8.23;;;;;;;19.50;42.07;100680.31;1789250;80;21063;-76
2021/05/23 19:05:20;;;;;;;29.10;10.23;;;;;;;19.41;42.58;100677.61;1789393;79;21110;-76
2021/05/23 19:07:48;;;;;;;32.23;10.68;;;;;;;19.33;43.32;100675.27;1789097;80;20979;-78
2021/05/23 19:10:16;;;;;;;31.02;11.22;;;;;;;19.24;43.99;100665.84;1790006;80;21110;-77
2021/05/23 19:12:42;;;;;;;34.65;16.15;;;;;;;19.15;44.39;100666.67;1789026;79;21559;-76
2021/05/23 19:15:17;;;;;;;32.78;12.28;;;;;;;19.07;44.71;100655.41;1813470;78;21542;-76
2021/05/23 19:17:47;;;;;;;21.17;9.45;;;;;;;18.97;44.84;100647.03;1821684;78;21034;-78
2021/05/23 19:20:25;;;;;;;26.82;9.60;;;;;;;18.87;45.20;100644.06;1821547;78;21016;-77
2021/05/23 19:22:56;;;;;;;24.82;9.55;;;;;;;18.75;45.54;100643.48;1821739;78;21605;-81
2021/05/23 19:25:28;;;;;;;18.20;9.33;;;;;;;18.62;46.11;100643.63;1769538;78;21482;-79
2021/05/23 19:27:55;;;;;;;23.70;9.50;;;;;;;18.51;46.76;100649.77;1821435;78;21166;-79
2021/05/23 19:30:28;;;;;;;22.93;9.00;;;;;;;18.42;47.24;100647.05;1823632;78;20969;-78
2021/05/23 19:32:54;;;;;;;14.43;7.83;;;;;;;18.33;47.95;100650.25;1822261;78;21057;-83
2021/05/23 19:35:25;;;;;;;20.95;7.97;;;;;;;18.20;48.51;100647.98;1822816;78;21561;-80
2021/05/23 19:37:49;;;;;;;18.52;8.30;;;;;;;18.09;48.88;100655.99;1821754;78;20895;-80
2021/05/23 19:40:18;;;;;;;19.73;8.23;;;;;;;17.99;49.45;100665.89;1823667;78;21047;-81
2021/05/23 19:42:46;;;;;;;18.07;7.25;;;;;;;17.91;49.76;100661.30;1821662;78;21372;-79
2021/05/23 19:45:14;;;;;;;16.37;6.80;;;;;;;17.83;49.93;100662.92;1797244;78;21092;-79
2021/05/23 19:47:42;;;;;;;13.60;6.03;;;;;;;17.75;50.49;100672.91;1789351;80;21049;-80
2021/05/23 19:50:11;;;;;;;14.40;5.45;;;;;;;17.68;51.02;100673.48;1791288;80;20982;-81
2021/05/23 19:52:38;;;;;;;11.57;5.28;;;;;;;17.62;51.13;100676.23;1790238;80;21061;-78
2021/05/23 19:55:08;;;;;;;9.63;4.70;;;;;;;17.54;51.52;100666.53;1773058;79;21124;-80
2021/05/23 19:57:37;;;;;;;8.28;4.95;;;;;;;17.45;51.84;100658.41;1748518;82;21021;-80
2021/05/23 20:00:05;;;;;;;16.07;8.35;;;;;;;17.36;52.51;100652.19;1761771;80;20965;-81
2021/05/23 20:02:35;;;;;;;12.25;6.20;;;;;;;17.29;53.19;100653.58;1762583;81;21008;-79
2021/05/23 20:05:01;;;;;;;10.00;5.08;;;;;;;17.21;53.53;100654.66;1748775;81;21598;-72
2021/05/23 20:07:28;;;;;;;12.95;5.28;;;;;;;17.13;53.68;100659.45;1762038;80;20969;-69
2021/05/23 20:09:55;;;;;;;9.75;4.87;;;;;;;17.03;53.86;100656.41;1761710;80;21111;-72
2021/05/23 20:12:22;;;;;;;10.00;4.80;;;;;;;16.94;54.21;100656.34;1761956;81;21489;-69
2021/05/23 20:14:50;;;;;;;7.80;4.80;;;;;;;16.86;54.35;100658.75;1730541;80;21012;-68
2021/05/23 20:17:16;;;;;;;11.50;4.90;;;;;;;16.80;54.47;100668.50;1780623;80;21336;-68
2021/05/23 20:19:43;;;;;;;23.73;7.70;;;;;;;16.74;54.58;100672.02;1780446;80;20934;-67
2021/05/23 20:22:12;;;;;;;45.83;12.47;;;;;;;16.69;55.10;100671.82;1780942;80;20934;-69
2021/05/23 20:24:38;;;;;;;40.33;15.13;;;;;;;16.66;55.62;100672.25;1780582;80;21022;-69
2021/05/23 20:27:06;;;;;;;45.83;16.48;;;;;;;16.63;55.94;100665.14;1780510;80;21058;-70
2021/05/23 20:29:33;;;;;;;48.25;16.60;;;;;;;16.59;56.29;100659.38;1780671;80;21771;-68
2021/05/23 20:31:59;;;;;;;55.17;16.82;;;;;;;16.54;56.60;100658.34;1780561;80;21674;-69
2021/05/23 20:34:25;;;;;;;41.63;16.05;;;;;;;16.48;56.91;100658.65;1780903;80;21541;-70
2021/05/23 20:36:54;;;;;;;51.90;18.37;;;;;;;16.45;57.07;100656.39;1780364;80;21633;-70
2021/05/23 20:39:20;;;;;;;46.80;17.90;;;;;;;16.41;57.49;100658.36;1780744;80;21554;-70
2021/05/23 20:41:47;;;;;;;47.03;16.67;;;;;;;16.44;57.86;100660.62;1780493;80;21547;-72
2021/05/23 20:44:14;;;;;;;36.73;16.35;;;;;;;16.48;57.95;100655.97;1782579;79;22263;-69
2021/05/23 20:46:41;;;;;;;40.48;15.55;;;;;;;16.54;58.20;100655.11;1785768;79;21041;-78
2021/05/23 20:49:08;;;;;;;42.88;17.52;;;;;;;16.62;58.42;100654.91;1786030;80;20990;-75
2021/05/23 20:51:36;;;;;;;44.58;19.55;;;;;;;16.70;58.43;100656.02;1786498;79;21108;-80
2021/05/23 20:54:09;;;;;;;45.38;19.35;;;;;;;16.76;58.44;100657.05;1786534;79;21090;-67
2021/05/23 20:56:34;;;;;;;36.65;17.52;;;;;;;16.81;58.61;100657.22;1789470;79;21533;-66
2021/05/23 20:59:01;;;;;;;40.35;19.65;;;;;;;16.89;58.72;100661.01;1789597;80;21069;-71
2021/05/23 21:01:27;;;;;;;46.42;18.32;;;;;;;17.04;58.74;100665.58;1789011;79;20906;-75
2021/05/23 21:03:55;;;;;;;30.37;16.67;;;;;;;17.24;58.48;100677.58;1789875;79;21153;-75
2021/05/23 21:06:22;;;;;;;46.73;18.27;;;;;;;17.43;58.26;100675.81;1789835;79;21061;-70
2021/05/23 21:08:50;;;;;;;46.20;18.75;;;;;;;17.56;57.93;100677.87;1789652;79;21494;-70
2021/05/23 21:11:16;;;;;;;45.03;18.00;;;;;;;17.71;57.57;100673.59;1789760;79;21061;-72
2021/05/23 21:13:44;;;;;;;38.83;17.45;;;;;;;17.82;57.37;100663.98;1789584;80;21215;-73
2021/05/23 21:16:12;;;;;;;36.80;18.15;;;;;;;17.92;57.41;100662.95;1749962;82;21042;-74
2021/05/23 21:18:39;;;;;;;39.20;18.67;;;;;;;18.07;57.26;100660.75;1749692;81;21860;-69
2021/05/23 21:21:05;;;;;;;41.13;19.27;;;;;;;18.19;56.92;100657.13;1749880;82;21092;-71
2021/05/23 21:23:31;;;;;;;29.37;15.68;;;;;;;18.27;56.52;100646.08;1749976;80;21061;-73
2021/05/23 21:25:58;;;;;;;28.75;13.98;;;;;;;18.34;56.28;100636.58;1749698;80;21136;-76
2021/05/23 21:28:26;;;;;;;31.25;12.80;;;;;;;18.39;56.13;100630.53;1727937;83;21010;-74
2021/05/23 21:30:53;;;;;;;37.28;15.13;;;;;;;18.41;56.05;100626.56;1727535;83;21114;-71
2021/05/23 21:33:19;;;;;;;40.67;15.00;;;;;;;18.43;55.91;100620.41;1727691;82;20950;-70
2021/05/23 21:35:46;;;;;;;40.52;16.12;;;;;;;18.46;55.77;100622.68;1727557;83;20986;-71
2021/05/23 21:38:15;;;;;;;36.05;15.65;;;;;;;18.46;55.78;100622.68;1727627;83;21589;-71
2021/05/23 21:40:41;;;;;;;35.50;15.75;;;;;;;18.46;55.80;100632.10;1727414;83;21053;-71
2021/05/23 21:43:07;;;;;;;35.17;15.18;;;;;;;18.45;55.64;100626.93;1727866;83;21043;-71
2021/05/23 21:45:34;;;;;;;37.45;16.65;;;;;;;18.44;55.69;100620.72;1727944;83;21033;-70
2021/05/23 21:48:02;;;;;;;44.77;17.37;;;;;;;18.43;55.52;100629.83;1727784;83;21117;-71
2021/05/23 21:50:30;;;;;;;36.80;15.88;;;;;;;18.41;55.38;100621.17;1727965;83;21558;-69
2021/05/23 21:52:56;;;;;;;36.75;16.15;;;;;;;18.41;55.36;100619.00;1727699;83;21179;-71
2021/05/23 21:55:23;;;;;;;31.80;15.40;;;;;;;18.40;55.42;100616.83;1727876;83;21847;-77
2021/05/23 21:57:49;;;;;;;28.67;11.95;;;;;;;18.40;55.34;100618.17;1727784;83;20990;-75
2021/05/23 22:00:16;;;;;;;28.02;13.72;;;;;;;18.42;55.05;100616.09;1726883;83;21050;-77
2021/05/23 22:02:44;;;;;;;23.22;11.80;;;;;;;18.47;54.88;100612.73;1727846;83;21121;-77
2021/05/23 22:05:13;;;;;;;19.82;9.78;;;;;;;18.49;54.77;100611.98;1728176;83;21109;-75
2021/05/23 22:07:39;;;;;;;22.27;9.60;;;;;;;18.53;54.41;100620.77;1780597;80;21164;-75
2021/05/23 22:10:07;;;;;;;19.02;9.83;;;;;;;18.58;53.91;100628.17;1780930;80;21073;-75
2021/05/23 22:12:34;;;;;;;23.67;12.05;;;;;;;18.61;53.43;100637.96;1780893;80;21049;-75
2021/05/23 22:15:00;;;;;;;25.25;12.35;;;;;;;18.62;53.28;100632.86;1746849;82;21117;-74
2021/05/23 22:17:27;;;;;;;24.85;10.28;;;;;;;18.63;52.71;100627.77;1762181;80;20977;-74
2021/05/23 22:19:54;;;;;;;22.45;9.38;;;;;;;18.65;52.05;100628.39;1748295;82;21384;-74
2021/05/23 22:22:22;;;;;;;18.60;8.65;;;;;;;18.64;51.55;100629.43;1762096;80;20953;-71
2021/05/23 22:24:49;;;;;;;18.73;8.05;;;;;;;18.64;51.13;100636.16;1748452;82;20974;-71
2021/05/23 22:27:15;;;;;;;17.20;7.58;;;;;;;18.63;50.98;100629.64;1748811;81;21034;-75
2021/05/23 22:29:42;;;;;;;13.22;7.35;;;;;;;18.65;50.54;100629.73;1761829;81;21037;-76
2021/05/23 22:32:08;;;;;;;13.68;6.00;;;;;;;18.67;50.31;100623.59;1748743;82;21039;-76
2021/05/23 22:34:35;;;;;;;10.28;4.42;;;;;;;18.70;49.90;100612.88;1762047;80;21017;-75
2021/05/23 22:37:03;;;;;;;9.53;4.35;;;;;;;18.71;49.41;100605.10;1748608;81;21558;-75
2021/05/23 22:39:30;;;;;;;11.78;3.83;;;;;;;18.72;49.12;100599.50;1762009;80;20985;-76
2021/05/23 22:41:57;;;;;;;9.45;4.22;;;;;;;18.75;49.07;100600.39;1748587;81;21092;-75
2021/05/23 22:44:24;;;;;;;8.20;4.17;;;;;;;18.77;48.81;100596.10;1783391;79;21685;-74
2021/05/23 22:46:50;;;;;;;10.32;3.80;;;;;;;18.78;48.80;100595.58;1797244;78;20960;-75
2021/05/23 22:49:17;;;;;;;8.48;3.15;;;;;;;18.77;48.86;100599.34;1781773;80;21007;-75
2021/05/23 22:51:46;;;;;;;8.23;3.52;;;;;;;18.79;48.64;100596.71;1781555;80;21015;-75
2021/05/23 22:54:12;;;;;;;6.53;3.55;;;;;;;18.82;48.39;100580.09;1781868;80;21075;-75
2021/05/23 22:56:39;;;;;;;4.85;3.15;;;;;;;18.85;48.29;100585.02;1789170;80;21044;-76
2021/05/23 22:59:06;;;;;;;5.55;3.27;;;;;;;18.86;48.13;100586.67;1790221;80;21015;-76
2021/05/23 23:01:41;;;;;;;8.20;3.62;;;;;;;18.85;48.11;100584.19;1790156;79;20995;-76
2021/05/23 23:04:16;;;;;;;;;;;;;;;18.82;47.94;100581.95;1792162;80;21066;-74
2021/05/23 23:06:37;;;;;;;10.30;3.95;;;;;;;18.82;47.92;100586.00;1789385;80;20148;-76
2021/05/23 23:09:04;;;;;;;7.97;4.00;;;;;;;18.81;47.75;100570.36;1790278;79;21036;-70
2021/05/23 23:11:30;;;;;;;7.85;3.87;;;;;;;18.84;47.75;100569.10;1790195;80;21531;-72
2021/05/23 23:13:59;;;;;;;13.75;5.00;;;;;;;18.83;47.72;100566.10;1790237;80;21546;-72
2021/05/23 23:16:26;;;;;;;12.63;5.10;;;;;;;18.84;47.82;100570.45;1790229;80;20999;-72
2021/05/23 23:18:53;;;;;;;11.55;4.35;;;;;;;18.83;47.88;100567.45;1790259;80;21551;-70
2021/05/23 23:21:20;;;;;;;9.75;3.90;;;;;;;18.83;47.94;100562.06;1790320;80;21114;-70
2021/05/23 23:23:46;;;;;;;9.83;3.98;;;;;;;18.80;48.00;100555.27;1790181;80;21016;-72
2021/05/23 23:26:14;;;;;;;7.08;4.08;;;;;;;18.78;48.18;100551.97;1790267;80;20947;-67
2021/05/23 23:28:41;;;;;;;9.33;3.33;;;;;;;18.78;48.23;100553.83;1790272;80;21488;-72
2021/05/23 23:31:08;;;;;;;10.08;3.62;;;;;;;18.77;48.31;100550.87;1790499;79;21509;-70
2021/05/23 23:33:36;;;;;;;5.25;2.75;;;;;;;18.77;48.52;100550.87;1790194;80;21087;-70
2021/05/23 23:36:04;;;;;;;6.05;2.92;;;;;;;18.75;48.54;100550.56;1790145;79;21070;-71
2021/05/23 23:38:30;;;;;;;7.03;2.72;;;;;;;18.72;48.75;100554.23;1790346;80;20892;-70
2021/05/23 23:40:57;;;;;;;4.35;2.55;;;;;;;18.70;48.89;100554.45;1790173;79;20928;-70
2021/05/23 23:43:25;;;;;;;7.67;2.45;;;;;;;18.72;49.06;100536.21;1790148;80;21007;-70
2021/05/23 23:45:51;;;;;;;6.35;2.67;;;;;;;18.74;49.14;100535.45;1790212;80;21066;-71
2021/05/23 23:48:18;;;;;;;5.90;2.20;;;;;;;18.78;49.09;100533.63;1790299;80;20984;-72
2021/05/23 23:50:46;;;;;;;5.85;2.22;;;;;;;18.81;49.13;100534.55;1790147;79;21512;-72
2021/05/23 23:53:12;;;;;;;6.22;1.85;;;;;;;18.82;49.08;100528.91;1790285;80;20976;-72
2021/05/23 23:55:40;;;;;;;6.55;2.15;;;;;;;18.86;49.11;100533.31;1787627;80;20912;-72
2021/05/23 23:58:07;;;;;;;4.70;2.17;;;;;;;18.88;49.08;100531.23;1781616;80;21161;-73
